createdAt,value
2024-01-05T00:00:10.880Z,98167.97
2024-01-05T00:02:38.608Z,98188.94
2024-01-05T00:05:06.635Z,98175.91
2024-01-05T00:07:35.732Z,98170.22
2024-01-05T00:10:03.086Z,98172.69
2024-01-05T00:12:31.670Z,98179.31
2024-01-05T00:18:58.543Z,98189.63
2024-01-05T00:21:28.365Z,98185.50
2024-01-05T00:23:57.024Z,98165.88
2024-01-05T00:26:27.954Z,98146.13
2024-01-05T00:28:56.677Z,98153.63
2024-01-05T00:31:24.576Z,98133.34
2024-01-05T00:33:52.757Z,98144.81
2024-01-05T00:36:20.382Z,98164.06
2024-01-05T00:38:49.805Z,98171.59
2024-01-05T00:41:18.310Z,98162.56
2024-01-05T00:43:50.245Z,98150.91
2024-01-05T00:46:17.757Z,98159.13
2024-01-05T00:48:45.058Z,98155.75
2024-01-05T00:51:12.502Z,98154.31
2024-01-05T00:53:39.940Z,98173.31
2024-01-05T00:56:08.907Z,98145.81
2024-01-05T00:58:36.619Z,98159.16
2024-01-05T01:01:07.709Z,98156.25
2024-01-05T01:03:35.815Z,98155.16
2024-01-05T01:06:03.706Z,98181.81
2024-01-05T01:08:31.275Z,98152.41
2024-01-05T01:10:58.739Z,98178.31
2024-01-05T01:13:26.051Z,98163.38
2024-01-05T01:15:59.376Z,98152.59
2024-01-05T01:18:29.199Z,98173.84
2024-01-05T01:20:56.821Z,98164.06
2024-01-05T01:26:50.697Z,98156.72
2024-01-05T01:29:18.245Z,98180.59
2024-01-05T01:31:45.651Z,98173.63
2024-01-05T01:34:13.356Z,98162.25
2024-01-05T01:36:41.064Z,98186.16
2024-01-05T01:39:08.699Z,98182.84
2024-01-05T01:41:36.233Z,98179.47
2024-01-05T01:44:04.021Z,98167.81
2024-01-05T01:47:05.033Z,98195.69
2024-01-05T01:49:32.603Z,98193.59
2024-01-05T01:52:00.346Z,98185.22
2024-01-05T01:54:31.383Z,98182.06
2024-01-05T01:57:00.726Z,98175.16
2024-01-05T01:59:28.231Z,98168.81
2024-01-05T02:01:55.936Z,98171.56
2024-01-05T02:04:24.524Z,98160.44
2024-01-05T02:06:52.251Z,98185.41
2024-01-05T02:09:20.114Z,98186.78
2024-01-05T02:11:47.805Z,98172.97
2024-01-05T02:14:19.024Z,98164.09
2024-01-05T02:16:46.694Z,98146.78
2024-01-05T02:19:34.225Z,98179.69
2024-01-05T02:22:03.021Z,98170.44
2024-01-05T02:24:30.488Z,98184.59
2024-01-05T02:26:58.078Z,98173.41
2024-01-05T02:29:25.556Z,98181.19
2024-01-05T02:31:53.671Z,98185.56
2024-01-05T02:34:21.256Z,98184.81
2024-01-05T07:24:44.999Z,98324.75
2024-01-05T07:27:12.498Z,98294.47
2024-01-05T07:36:34.002Z,98295.81
2024-01-05T07:39:01.564Z,98306.88
2024-01-05T07:45:30.455Z,98318.84
2024-01-05T07:51:31.897Z,98301.88
2024-01-05T07:53:59.249Z,98311.03
2024-01-05T07:56:26.572Z,98321.34
2024-01-05T07:58:53.845Z,98304.50
2024-01-05T08:01:22.233Z,98308.91
2024-01-05T08:03:49.845Z,98316.78
2024-01-05T08:06:27.274Z,98314.69
2024-01-05T08:09:05.431Z,98298.72
2024-01-05T08:11:33.325Z,98326.72
2024-01-05T08:14:03.961Z,98331.84
2024-01-05T08:16:31.628Z,98319.13
2024-01-05T08:18:59.273Z,98316.16
2024-01-05T08:21:29.649Z,98312.66
2024-01-05T08:23:57.890Z,98313.38
2024-01-05T08:26:28.469Z,98334.66
2024-01-05T08:28:58.607Z,98338.88
2024-01-05T08:35:13.779Z,98328.47
2024-01-05T08:41:57.202Z,98335.13
2024-01-05T08:51:22.502Z,98310.06
2024-01-05T08:53:50.217Z,98295.09
2024-01-05T08:56:21.563Z,98324.03
2024-01-05T08:58:49.009Z,98287.97
2024-01-05T09:01:16.423Z,98288.63
2024-01-05T09:03:44.232Z,98289.78
2024-01-05T09:06:12.573Z,98311.28
2024-01-05T09:22:27.986Z,98315.72
2024-01-05T09:24:55.825Z,98317.81
2024-01-05T09:30:53.909Z,98290.06
2024-01-05T09:33:25.977Z,98300.38
2024-01-05T09:35:58.195Z,98302.38
2024-01-05T09:38:46.276Z,98311.53
2024-01-05T09:41:37.236Z,98301.47
2024-01-05T09:44:27.214Z,98303.69
2024-01-05T09:47:16.044Z,98310.16
2024-01-05T09:50:06.476Z,98321.28
2024-01-05T09:53:01.014Z,98311.53
2024-01-05T09:56:00.583Z,98292.75
2024-01-05T09:58:48.954Z,98287.53
2024-01-05T10:01:38.863Z,98297.00
2024-01-05T10:04:26.640Z,98302.72
2024-01-05T10:07:14.105Z,98299.91
2024-01-05T10:33:09.399Z,98319.16
2024-01-05T10:36:07.943Z,98319.66
2024-01-05T10:42:37.216Z,98315.25
2024-01-05T10:46:24.941Z,98332.00
2024-01-05T10:49:13.921Z,98312.34
2024-01-05T10:53:13.611Z,98339.25
2024-01-05T11:58:56.346Z,98380.94
2024-01-05T12:01:43.914Z,98375.56
2024-01-05T12:04:55.315Z,98363.28
2024-01-05T12:07:43.016Z,98385.09
2024-01-05T12:10:50.140Z,98375.31
2024-01-05T12:13:47.564Z,98370.53
2024-01-05T12:16:35.581Z,98379.78
2024-01-05T12:19:32.272Z,98379.19
2024-01-05T12:25:46.379Z,98370.09
2024-01-05T12:28:38.579Z,98387.06
2024-01-05T12:31:26.939Z,98388.97
2024-01-05T12:34:23.852Z,98358.66
2024-01-05T12:38:09.338Z,98398.59
2024-01-05T12:41:10.562Z,98371.56
2024-01-05T12:44:57.742Z,98403.69
2024-01-05T13:13:17.697Z,98413.81
2024-01-05T13:16:05.521Z,98414.66
2024-01-05T13:18:53.364Z,98419.38
2024-01-05T15:21:09.464Z,98460.69
2024-01-05T15:23:58.080Z,98476.59
2024-01-05T15:27:07.660Z,98472.72
2024-01-05T15:30:37.394Z,98485.84
2024-01-05T15:33:25.318Z,98465.78
2024-01-05T17:08:16.739Z,98531.38
2024-01-05T17:17:57.884Z,98528.31
2024-01-05T17:20:45.677Z,98524.75
2024-01-05T17:23:33.698Z,98532.28
2024-01-05T17:26:21.324Z,98522.13
2024-01-05T17:32:35.833Z,98532.06
2024-01-05T17:35:29.652Z,98529.28
2024-01-05T17:38:18.816Z,98547.81
2024-01-05T17:41:06.593Z,98549.56
2024-01-05T17:43:54.122Z,98552.38
2024-01-05T17:46:41.693Z,98537.75
2024-01-05T17:49:30.128Z,98544.03
2024-01-05T17:55:53.622Z,98546.53
2024-01-05T18:02:11.660Z,98565.75
2024-01-05T18:04:39.179Z,98568.81
2024-01-05T18:07:06.893Z,98564.91
2024-01-05T18:09:34.442Z,98566.16
2024-01-05T18:12:01.879Z,98567.69
2024-01-05T18:14:29.329Z,98559.31
2024-01-05T18:16:56.844Z,98556.13
2024-01-05T18:19:24.320Z,98550.28
2024-01-05T18:21:53.089Z,98568.09
2024-01-05T18:24:20.950Z,98553.38
2024-01-05T18:26:48.511Z,98571.41
2024-01-05T18:29:24.593Z,98561.91
2024-01-05T18:32:18.033Z,98564.97
2024-01-05T18:34:48.245Z,98569.47
2024-01-05T18:38:12.299Z,98583.19
2024-01-05T18:40:40.313Z,98583.44
2024-01-05T18:46:49.408Z,98594.91
2024-01-05T19:21:16.813Z,98594.84
2024-01-05T19:23:47.474Z,98588.19
2024-01-05T21:58:09.458Z,98662.75
2024-01-05T22:00:39.425Z,98659.75
2024-01-05T22:03:07.138Z,98678.69
2024-01-05T22:05:58.793Z,98680.88
2024-01-05T22:12:41.894Z,98674.84
2024-01-05T22:15:12.936Z,98653.69
2024-01-05T22:17:40.451Z,98667.38
2024-01-05T22:20:09.076Z,98666.84
2024-01-05T22:22:36.713Z,98672.72
2024-01-05T22:25:06.677Z,98672.69
2024-01-05T22:27:34.498Z,98656.38
2024-01-05T22:30:02.256Z,98667.22
2024-01-05T22:32:32.051Z,98663.63
2024-01-05T22:35:00.107Z,98665.22
2024-01-05T22:37:27.854Z,98658.34
2024-01-05T22:39:55.553Z,98643.84
2024-01-05T22:42:23.019Z,98667.22
2024-01-05T22:44:50.468Z,98647.88
2024-01-05T22:47:18.015Z,98651.25
2024-01-05T22:49:45.689Z,98665.16
2024-01-05T22:52:13.378Z,98654.59
2024-01-05T22:54:41.223Z,98657.47
2024-01-05T22:57:09.716Z,98644.78
2024-01-05T22:59:37.738Z,98638.31
2024-01-05T23:02:05.537Z,98649.63
2024-01-05T23:04:33.330Z,98655.66
2024-01-05T23:07:00.821Z,98651.03
2024-01-05T23:09:28.344Z,98636.09
2024-01-05T23:11:55.753Z,98645.09
2024-01-05T23:14:23.201Z,98665.72
2024-01-05T23:16:51.369Z,98669.41
2024-01-05T23:19:21.254Z,98658.94
2024-01-05T23:21:48.899Z,98677.53
2024-01-05T23:24:16.607Z,98665.69
2024-01-05T23:26:47.341Z,98682.19
2024-01-05T23:29:14.990Z,98673.44
2024-01-05T23:31:46.313Z,98654.66
2024-01-05T23:34:17.037Z,98646.66
2024-01-05T23:36:45.587Z,98663.91
2024-01-05T23:39:13.618Z,98669.06
2024-01-05T23:41:43.067Z,98664.00
2024-01-05T23:44:10.652Z,98666.81
2024-01-05T23:46:38.101Z,98671.22
2024-01-05T23:49:05.543Z,98685.94
2024-01-05T23:54:08.379Z,98698.28
2024-01-05T23:56:38.341Z,98696.22
2024-01-05T23:59:06.057Z,98699.03
